Time;durP1;ratioP1;P1;durP2;ratioP2;P2;SDS_P1;SDS_P2;PMS_P1;PMS_P2;Temp;Humidity;BMP_temperature;BMP_pressure;BME280_temperature;BME280_humidity;BME280_pressure;Samples;Min_cycle;Max_cycle;Signal;HPM_P1;HPM_P2
2023/06/03 00:02:18;;;;;;;2.85;0.80;;;;;;;12.05;44.67;101031.19;10091455;29;20135;-78
2023/06/03 00:07:21;;;;;;;2.83;1.20;;;;;;;12.06;44.79;101032.03;10091596;29;20049;-78
2023/06/03 00:12:24;;;;;;;2.05;1.10;;;;;;;11.95;44.70;101024.78;10092740;29;20048;-78
2023/06/03 00:17:30;;;;;;;3.25;0.90;;;;;;;11.87;44.65;101022.69;10095201;29;20093;-78
2023/06/03 00:22:34;;;;;;;1.42;0.77;;;;;;;11.86;44.37;101039.81;10092886;29;20099;-76
2023/06/03 00:27:38;;;;;;;3.30;0.90;;;;;;;11.80;44.64;101045.69;10094586;29;20164;-78
2023/06/03 00:32:42;;;;;;;1.13;0.80;;;;;;;11.77;44.70;101045.91;10096916;29;20060;-78
2023/06/03 00:37:45;;;;;;;5.68;0.82;;;;;;;11.74;44.61;101054.22;10091818;29;20366;-78
2023/06/03 00:42:48;;;;;;;3.78;1.60;;;;;;;11.66;44.83;101049.41;10079581;29;20096;-78
2023/06/03 00:47:52;;;;;;;2.60;1.10;;;;;;;11.25;47.16;101052.50;10077882;29;20113;-79
2023/06/03 00:52:55;;;;;;;1.42;1.00;;;;;;;11.00;47.57;101045.31;10070713;29;20553;-78
2023/06/03 00:57:58;;;;;;;3.55;1.02;;;;;;;10.35;48.72;101066.00;10090019;29;20033;-78
2023/06/03 01:03:03;;;;;;;5.13;1.20;;;;;;;10.10;49.86;101065.97;10086910;29;20060;-78
2023/06/03 01:08:14;;;;;;;1.50;0.85;;;;;;;10.26;49.86;101053.22;10069424;29;20140;-78
2023/06/03 01:13:25;;;;;;;2.42;0.90;;;;;;;10.45;49.51;101057.28;10088718;29;20037;-78
2023/06/03 01:18:31;;;;;;;4.47;1.05;;;;;;;10.48;49.03;101052.59;10072118;29;20651;-78
2023/06/03 01:23:36;;;;;;;1.67;0.95;;;;;;;10.48;48.92;101062.47;10089210;29;20040;-78
2023/06/03 01:28:39;;;;;;;1.10;0.77;;;;;;;10.46;49.77;101065.25;10072270;29;20051;-78
2023/06/03 01:33:42;;;;;;;2.70;0.88;;;;;;;10.42;49.69;101060.19;10088797;29;20041;-78
2023/06/03 01:38:47;;;;;;;1.95;1.20;;;;;;;10.36;48.84;101061.47;10071984;29;20045;-79
2023/06/03 01:43:50;;;;;;;3.63;1.10;;;;;;;10.37;49.12;101049.78;10071500;29;20458;-78
2023/06/03 01:48:53;;;;;;;2.38;1.00;;;;;;;10.42;49.06;101058.34;10071708;29;20055;-78
2023/06/03 01:53:57;;;;;;;1.98;0.80;;;;;;;10.37;48.73;101056.00;10071535;29;20052;-78
2023/06/03 01:59:00;;;;;;;3.10;0.98;;;;;;;10.36;49.33;101056.09;10088329;29;20112;-79
2023/06/03 02:04:04;;;;;;;1.83;1.08;;;;;;;10.27;49.43;101054.91;10071690;29;20049;-77
2023/06/03 02:09:10;;;;;;;3.17;1.17;;;;;;;10.26;49.91;101058.59;10086340;29;20132;-78
2023/06/03 02:14:13;;;;;;;2.67;1.65;;;;;;;10.14;51.00;101046.84;10071238;29;20508;-78
2023/06/03 02:19:19;;;;;;;0.80;0.80;;;;;;;10.00;51.37;101063.03;10074972;29;20057;-78
2023/06/03 02:24:23;;;;;;;0.98;0.88;;;;;;;9.82;51.08;101056.19;10071011;29;20516;-78
2023/06/03 02:29:26;;;;;;;2.67;1.00;;;;;;;9.66;51.32;101059.06;10095356;29;20533;-78
2023/06/03 02:34:31;;;;;;;2.70;0.90;;;;;;;9.60;51.74;101052.28;10094682;29;20080;-79
2023/06/03 02:39:36;;;;;;;2.55;0.80;;;;;;;9.49;51.85;101058.34;10089021;29;20071;-78
2023/06/03 02:44:39;;;;;;;2.70;2.00;;;;;;;9.47;52.32;101054.06;10096812;29;20053;-79
2023/06/03 02:49:44;;;;;;;2.80;1.20;;;;;;;9.36;52.34;101061.94;10080674;29;20052;-78
2023/06/03 02:54:48;;;;;;;2.85;1.50;;;;;;;9.38;52.11;101047.47;10081718;29;20056;-78
2023/06/03 02:59:51;;;;;;;1.90;1.05;;;;;;;9.36;51.01;101052.06;10096888;29;20072;-79
2023/06/03 03:04:54;;;;;;;2.03;1.20;;;;;;;9.51;51.49;101058.25;10094993;29;20060;-77
2023/06/03 03:09:59;;;;;;;1.88;0.90;;;;;;;9.34;52.05;101067.41;10092191;29;20049;-77
2023/06/03 03:15:06;;;;;;;0.90;0.85;;;;;;;9.26;52.57;101064.34;10076452;29;20045;-78
2023/06/03 03:20:10;;;;;;;2.33;0.90;;;;;;;9.26;53.37;101072.41;10075986;29;20063;-78
2023/06/03 03:25:15;;;;;;;1.42;0.80;;;;;;;9.29;53.74;101061.47;10075832;29;20310;-77
2023/06/03 03:30:19;;;;;;;6.13;1.08;;;;;;;9.19;53.67;101065.72;10073093;29;20646;-77
2023/06/03 03:35:22;;;;;;;3.35;0.57;;;;;;;9.11;52.94;101068.03;10082844;29;20131;-78
2023/06/03 03:40:32;;;;;;;1.40;0.80;;;;;;;9.11;52.17;101063.53;10098342;29;20080;-78
2023/06/03 03:45:37;;;;;;;3.22;0.82;;;;;;;9.09;52.49;101064.59;10076441;29;20112;-77
2023/06/03 03:50:48;;;;;;;1.23;0.90;;;;;;;9.18;52.13;101053.25;10078937;29;20076;-79
2023/06/03 03:56:09;;;;;;;1.83;0.98;;;;;;;9.18;53.06;101063.97;10091564;29;20096;-78
2023/06/03 04:01:22;;;;;;;1.53;0.83;;;;;;;9.11;52.39;101060.00;10077849;29;20485;-77
2023/06/03 04:06:37;;;;;;;0.90;0.80;;;;;;;9.15;52.22;101065.03;10075320;29;20041;-78
2023/06/03 04:11:45;;;;;;;2.63;0.80;;;;;;;9.13;51.35;101074.13;10075231;29;20045;-77
2023/06/03 04:16:56;;;;;;;5.40;0.80;;;;;;;9.06;51.58;101071.84;10074058;29;20061;-78
2023/06/03 04:22:05;;;;;;;0.90;0.60;;;;;;;8.96;51.54;101078.75;10072477;29;20136;-78
2023/06/03 04:27:10;;;;;;;1.50;0.90;;;;;;;9.17;51.78;101073.00;10076543;29;20045;-77
2023/06/03 04:32:14;;;;;;;2.85;0.98;;;;;;;9.21;51.38;101078.03;10075029;29;20147;-77
2023/06/03 04:37:17;;;;;;;3.03;0.80;;;;;;;9.47;51.54;101094.28;10077261;29;20055;-76
2023/06/03 04:42:22;;;;;;;3.33;0.80;;;;;;;9.62;51.00;101085.22;10075978;29;20053;-78
2023/06/03 04:47:29;;;;;;;1.45;0.80;;;;;;;9.72;52.00;101097.06;10072471;29;20055;-78
2023/06/03 04:52:32;;;;;;;3.25;0.82;;;;;;;9.90;51.78;101095.03;10094179;29;20049;-78
2023/06/03 04:57:37;;;;;;;1.17;0.80;;;;;;;9.98;52.84;101097.16;10092156;29;20057;-78
2023/06/03 05:02:44;;;;;;;5.75;1.23;;;;;;;10.06;53.75;101102.03;10074009;29;20049;-78
2023/06/03 05:07:48;;;;;;;2.97;1.00;;;;;;;10.12;53.83;101099.81;10074604;29;20055;-78
2023/06/03 05:12:53;;;;;;;1.30;1.05;;;;;;;10.23;53.68;101096.41;10091980;29;20040;-78
2023/06/03 05:17:57;;;;;;;1.67;0.70;;;;;;;10.37;54.25;101092.75;10091854;29;20140;-79
2023/06/03 05:23:00;;;;;;;1.27;0.90;;;;;;;10.45;53.70;101090.41;10089289;29;20049;-79
2023/06/03 05:28:07;;;;;;;2.25;1.00;;;;;;;10.57;52.74;101099.44;10073941;29;20082;-78
2023/06/03 05:33:24;;;;;;;4.45;1.00;;;;;;;10.75;50.93;101097.25;10075294;29;20060;-78
2023/06/03 05:38:30;;;;;;;1.90;0.90;;;;;;;10.95;50.41;101093.19;10075075;29;20553;-79
2023/06/03 05:43:36;;;;;;;1.40;0.68;;;;;;;11.11;49.64;101085.72;10078734;29;20060;-79
2023/06/03 05:48:39;;;;;;;1.13;0.75;;;;;;;11.33;48.36;101094.97;10074199;29;20045;-78
2023/06/03 05:53:43;;;;;;;4.35;0.93;;;;;;;11.39;47.85;101097.19;10088189;29;20041;-77
2023/06/03 05:58:51;;;;;;;6.60;0.93;;;;;;;11.54;48.00;101093.38;10073762;29;20097;-76
2023/06/03 06:03:55;;;;;;;2.65;0.95;;;;;;;11.76;48.01;101099.84;10080637;29;20057;-79
2023/06/03 06:09:02;;;;;;;1.20;0.75;;;;;;;11.89;47.00;101092.56;10081921;29;20109;-78
2023/06/03 06:14:07;;;;;;;2.45;0.93;;;;;;;12.05;45.32;101095.81;10095518;29;20140;-78
2023/06/03 06:19:11;;;;;;;3.53;0.90;;;;;;;12.15;44.89;101090.59;10094590;29;20063;-78
2023/06/03 06:24:14;;;;;;;3.00;0.95;;;;;;;12.38;45.39;101091.53;10095270;29;20069;-78
2023/06/03 06:29:21;;;;;;;2.78;0.68;;;;;;;12.76;45.04;101085.84;10093864;29;20505;-78
2023/06/03 06:34:29;;;;;;;3.50;0.90;;;;;;;13.12;45.64;101091.97;10089577;29;20453;-75
2023/06/03 06:39:46;;;;;;;3.95;0.80;;;;;;;13.37;43.47;101093.56;10079029;29;20127;-78
2023/06/03 06:45:08;;;;;;;1.65;0.70;;;;;;;13.47;42.13;101102.63;10094742;29;20369;-77
2023/06/03 06:50:36;;;;;;;2.38;0.73;;;;;;;13.68;41.97;101101.84;10088336;29;20056;-78
2023/06/03 06:55:47;;;;;;;1.08;0.60;;;;;;;13.98;41.66;101105.66;10078615;29;21267;-77
2023/06/03 07:00:53;;;;;;;2.85;0.73;;;;;;;14.24;41.73;101101.63;10097588;29;20048;-77
2023/06/03 07:05:56;;;;;;;3.38;0.80;;;;;;;14.60;41.88;101096.75;10093231;29;20049;-77
2023/06/03 07:11:05;;;;;;;0.93;0.75;;;;;;;15.14;38.68;101092.00;10078181;29;20057;-78
2023/06/03 07:16:16;;;;;;;0.90;0.63;;;;;;;15.76;37.13;101084.66;10076919;29;20131;-77
2023/06/03 07:21:23;;;;;;;1.10;0.50;;;;;;;16.38;35.30;101085.25;10041232;29;20520;-79
2023/06/03 07:26:27;;;;;;;0.85;0.65;;;;;;;17.84;34.68;101089.00;10038401;29;21262;-77
2023/06/03 07:31:35;;;;;;;3.70;0.63;;;;;;;19.29;31.92;101085.78;10039588;29;20060;-77
2023/06/03 07:36:38;;;;;;;0.98;0.60;;;;;;;19.55;30.97;101084.84;10040253;29;20056;-79
2023/06/03 07:41:42;;;;;;;1.02;0.65;;;;;;;19.37;31.39;101094.00;10037934;29;20881;-77
2023/06/03 07:46:57;;;;;;;1.27;0.40;;;;;;;19.83;29.95;101102.66;10038040;29;20136;-76
2023/06/03 07:52:00;;;;;;;2.30;0.68;;;;;;;19.56;30.45;101095.63;10048023;29;20053;-76
2023/06/03 07:57:05;;;;;;;2.60;0.60;;;;;;;18.92;31.68;101108.75;10054354;29;20140;-76
2023/06/03 08:02:12;;;;;;;1.13;0.60;;;;;;;18.12;33.28;101103.38;10053617;29;20063;-76
2023/06/03 08:07:17;;;;;;;4.03;0.65;;;;;;;18.56;32.72;101097.94;10054484;29;20429;-77
2023/06/03 08:12:25;;;;;;;1.25;0.55;;;;;;;18.66;33.14;101100.56;10053628;29;20436;-77
2023/06/03 08:17:38;;;;;;;2.03;0.70;;;;;;;18.65;32.36;101098.00;10044474;29;21611;-77
2023/06/03 08:22:43;;;;;;;0.98;0.70;;;;;;;18.66;32.43;101091.56;10054018;29;20055;-78
2023/06/03 08:27:47;;;;;;;2.17;0.60;;;;;;;19.20;31.84;101084.91;10055246;29;20064;-76
2023/06/03 08:32:51;;;;;;;1.05;0.50;;;;;;;19.53;31.52;101081.41;10072905;29;20056;-77
2023/06/03 08:37:54;;;;;;;1.88;0.50;;;;;;;19.84;30.50;101076.25;10088503;29;20052;-76
2023/06/03 08:43:03;;;;;;;2.92;0.77;;;;;;;19.94;28.46;101076.06;10078026;29;20051;-76
2023/06/03 08:48:23;;;;;;;0.85;0.50;;;;;;;19.99;29.22;101073.69;10087988;29;20049;-77
2023/06/03 08:53:26;;;;;;;0.68;0.60;;;;;;;19.71;29.81;101078.63;10088765;29;20071;-77
2023/06/03 08:58:33;;;;;;;14.45;1.63;;;;;;;19.77;30.06;101073.31;10092284;29;20060;-77
2023/06/03 09:03:38;;;;;;;1.67;0.40;;;;;;;20.49;30.34;101075.44;10088320;29;20576;-77
2023/06/03 09:08:42;;;;;;;1.20;0.73;;;;;;;20.94;30.08;101076.69;10088044;29;20508;-75
2023/06/03 09:13:45;;;;;;;2.92;0.50;;;;;;;21.08;29.35;101072.38;10088265;29;20041;-77
2023/06/03 09:18:52;;;;;;;1.98;0.40;;;;;;;20.60;29.03;101069.59;10087795;29;20049;-76
2023/06/03 09:23:55;;;;;;;1.50;0.60;;;;;;;20.57;29.59;101061.78;10088245;29;20056;-76
2023/06/03 09:28:59;;;;;;;2.95;0.60;;;;;;;20.89;29.44;101060.81;10088441;29;20076;-76
2023/06/03 09:34:04;;;;;;;2.72;0.85;;;;;;;21.20;28.46;101062.75;10089168;29;20057;-77
2023/06/03 09:39:10;;;;;;;2.42;0.65;;;;;;;21.46;28.86;101067.94;10086126;29;20532;-77
2023/06/03 09:44:13;;;;;;;1.52;0.50;;;;;;;21.73;28.80;101066.56;10087522;29;20045;-77
2023/06/03 09:49:20;;;;;;;0.80;0.60;;;;;;;21.67;28.89;101050.91;10091048;29;20063;-77
2023/06/03 09:54:43;;;;;;;0.88;0.60;;;;;;;21.92;28.49;101051.59;10087131;29;20045;-77
2023/06/03 09:59:46;;;;;;;1.70;1.00;;;;;;;22.11;28.71;101059.31;10085728;29;20489;-77
2023/06/03 10:04:50;;;;;;;0.82;0.57;;;;;;;22.30;27.92;101068.03;10086118;29;20072;-77
2023/06/03 10:10:04;;;;;;;0.55;0.50;;;;;;;22.22;27.55;101047.06;10077285;29;20540;-77
2023/06/03 10:15:08;;;;;;;0.80;0.63;;;;;;;22.06;28.35;101056.25;10086223;29;20434;-77
2023/06/03 10:20:31;;;;;;;1.25;0.68;;;;;;;22.31;27.90;101058.78;10071774;29;20041;-77
2023/06/03 10:25:41;;;;;;;3.65;0.68;;;;;;;22.41;27.43;101053.91;10087730;29;20049;-77
2023/06/03 10:30:44;;;;;;;1.50;0.70;;;;;;;22.65;26.81;101046.47;10088040;29;20497;-77
2023/06/03 10:35:50;;;;;;;2.00;0.70;;;;;;;22.83;26.93;101043.38;10086993;29;20045;-77
2023/06/03 10:40:54;;;;;;;0.90;0.68;;;;;;;22.88;26.33;101041.78;10088252;29;20041;-77
2023/06/03 10:45:58;;;;;;;2.05;0.95;;;;;;;22.75;25.98;101038.84;10086110;29;20048;-77
2023/06/03 10:51:17;;;;;;;1.75;0.70;;;;;;;22.97;28.30;101037.03;10093773;29;20049;-77
2023/06/03 10:56:28;;;;;;;2.70;0.88;;;;;;;22.55;27.50;101041.31;10093205;29;20416;-77
2023/06/03 11:01:55;;;;;;;2.67;0.70;;;;;;;22.90;27.11;101030.63;10093224;29;20556;-77
2023/06/03 11:07:00;;;;;;;3.92;0.80;;;;;;;23.17;27.31;101034.59;10089080;29;20081;-76
2023/06/03 11:12:06;;;;;;;2.15;0.60;;;;;;;23.04;27.70;101038.00;10093385;29;20045;-75
2023/06/03 11:17:12;;;;;;;1.65;0.70;;;;;;;23.79;26.72;101025.81;10091769;29;20557;-77
2023/06/03 11:22:40;;;;;;;1.15;0.65;;;;;;;24.10;26.25;101024.59;10092998;29;20520;-77
2023/06/03 11:27:43;;;;;;;1.98;0.70;;;;;;;24.40;26.40;101024.47;10092145;29;20080;-76
2023/06/03 11:33:10;;;;;;;5.72;0.70;;;;;;;24.60;25.62;101017.22;10090718;29;20041;-77
2023/06/03 11:38:15;;;;;;;0.73;0.50;;;;;;;24.63;25.71;101019.56;10092840;29;20049;-76
2023/06/03 11:43:18;;;;;;;1.52;0.55;;;;;;;24.25;25.26;101019.88;10089864;29;20052;-76
2023/06/03 11:48:32;;;;;;;1.48;0.43;;;;;;;24.06;25.14;101024.16;10092424;29;20049;-77
2023/06/03 11:53:38;;;;;;;0.82;0.60;;;;;;;24.04;24.59;101018.03;10092409;29;20089;-76
2023/06/03 11:58:41;;;;;;;1.13;0.70;;;;;;;24.54;24.88;101013.34;10091655;29;20057;-75
2023/06/03 12:03:57;;;;;;;2.15;1.15;;;;;;;24.48;24.65;101014.16;10089874;29;20041;-75
2023/06/03 12:09:02;;;;;;;1.58;0.75;;;;;;;24.46;24.42;101012.66;10092629;29;20531;-76
2023/06/03 12:14:05;;;;;;;1.60;0.88;;;;;;;25.48;24.17;101006.41;10091659;29;20049;-75
2023/06/03 12:19:08;;;;;;;1.38;0.60;;;;;;;25.71;23.33;100997.78;10091539;29;20057;-76
2023/06/03 12:24:13;;;;;;;0.45;0.45;;;;;;;25.12;24.52;101002.06;10089940;29;20041;-75
2023/06/03 12:29:16;;;;;;;3.10;0.55;;;;;;;25.72;24.44;101004.13;10089736;29;20079;-75
2023/06/03 12:34:30;;;;;;;1.73;0.90;;;;;;;26.12;22.16;100996.75;10091227;29;20093;-76
2023/06/03 12:39:45;;;;;;;0.82;0.50;;;;;;;26.04;21.86;100995.03;10090887;29;20105;-76
2023/06/03 12:44:49;;;;;;;0.85;0.70;;;;;;;26.08;22.95;100989.97;10089265;29;20089;-77
2023/06/03 12:50:06;;;;;;;4.97;0.60;;;;;;;26.08;22.96;100993.59;10091268;29;20120;-75
2023/06/03 12:55:13;;;;;;;0.88;0.70;;;;;;;25.94;22.48;100989.13;10090307;29;20056;-75
2023/06/03 13:00:19;;;;;;;0.75;0.70;;;;;;;25.67;22.87;100985.53;10089145;29;20045;-76
2023/06/03 13:05:23;;;;;;;2.03;0.60;;;;;;;26.58;23.31;100981.25;10089952;29;20144;-77
2023/06/03 13:10:28;;;;;;;1.25;0.63;;;;;;;25.87;21.17;100980.03;10090239;29;20049;-76
2023/06/03 13:15:31;;;;;;;0.73;0.52;;;;;;;24.36;22.47;100981.97;10089600;29;20057;-75
2023/06/03 13:20:33;;;;;;;0.50;0.47;;;;;;;23.52;24.04;100980.78;10089099;29;20097;-75
2023/06/03 13:25:38;;;;;;;1.30;0.90;;;;;;;23.19;24.09;100969.47;10089419;29;20053;-77
2023/06/03 13:30:40;;;;;;;5.65;0.70;;;;;;;23.33;24.24;100970.47;10089553;29;20048;-75
2023/06/03 13:35:44;;;;;;;3.22;0.50;;;;;;;23.33;24.90;100962.25;10089098;29;20037;-75
2023/06/03 13:40:49;;;;;;;2.38;0.60;;;;;;;23.57;25.52;100961.88;10090219;29;20037;-77
2023/06/03 13:45:51;;;;;;;3.00;0.70;;;;;;;24.75;25.62;100959.38;10070031;29;20486;-76
2023/06/03 13:50:55;;;;;;;0.93;0.70;;;;;;;25.92;23.46;100960.09;10088698;29;20049;-76
2023/06/03 13:55:59;;;;;;;0.88;0.70;;;;;;;26.18;23.66;100948.25;10090218;29;20461;-76
2023/06/03 14:01:03;;;;;;;1.50;0.70;;;;;;;25.25;23.12;100951.75;10088987;29;20037;-76
2023/06/03 14:06:06;;;;;;;4.22;0.70;;;;;;;24.22;24.89;100948.94;10089021;29;20060;-73
2023/06/03 14:11:11;;;;;;;2.03;0.68;;;;;;;23.59;24.68;100946.06;10088825;29;20049;-75
2023/06/03 14:16:15;;;;;;;1.42;0.90;;;;;;;23.92;25.50;100931.81;10088474;29;20049;-74
2023/06/03 14:21:18;;;;;;;2.35;0.73;;;;;;;25.51;23.98;100928.13;10090142;29;20109;-75
2023/06/03 14:26:23;;;;;;;1.92;0.63;;;;;;;26.40;22.73;100926.84;10095592;29;20049;-75
2023/06/03 14:31:26;;;;;;;1.25;0.75;;;;;;;26.79;22.76;100919.47;10097685;29;20040;-74
2023/06/03 14:36:38;;;;;;;0.75;0.70;;;;;;;26.78;21.94;100918.63;10094679;29;20053;-76
2023/06/03 14:41:42;;;;;;;3.60;0.90;;;;;;;26.68;22.13;100918.25;10095674;29;20041;-76
2023/06/03 14:46:45;;;;;;;0.68;0.68;;;;;;;26.51;22.25;100918.72;10094132;29;20056;-76
2023/06/03 14:51:48;;;;;;;0.90;0.68;;;;;;;26.24;22.39;100923.47;10080973;29;20053;-75
2023/06/03 14:56:52;;;;;;;2.63;0.80;;;;;;;26.27;22.88;100909.31;10093646;29;20063;-76
2023/06/03 15:01:55;;;;;;;33.20;18.33;;;;;;;25.77;22.62;100908.91;10095145;29;20052;-76
2023/06/03 15:06:58;;;;;;;3.50;1.08;;;;;;;25.51;22.62;100908.88;10094776;29;20056;-74
2023/06/03 15:12:02;;;;;;;13.60;7.93;;;;;;;25.40;22.83;100899.34;10096148;29;20041;-73
2023/06/03 15:17:05;;;;;;;26.35;15.25;;;;;;;25.68;22.53;100898.34;10095200;29;20047;-74
2023/06/03 15:22:08;;;;;;;10.98;7.57;;;;;;;25.35;23.26;100893.63;10093246;29;20041;-74
2023/06/03 15:27:12;;;;;;;20.95;13.20;;;;;;;25.04;23.29;100880.47;10092581;29;20045;-74
2023/06/03 15:32:15;;;;;;;1.20;0.90;;;;;;;25.35;23.67;100871.63;10093877;29;20048;-74
2023/06/03 15:37:18;;;;;;;2.13;0.80;;;;;;;25.34;22.75;100864.44;10093150;29;20524;-74
2023/06/03 15:42:22;;;;;;;3.45;2.45;;;;;;;24.88;23.03;100868.78;10094475;29;20041;-74
2023/06/03 15:47:25;;;;;;;1.27;1.08;;;;;;;25.18;22.69;100850.06;10090883;29;20056;-73
2023/06/03 15:52:29;;;;;;;4.10;2.22;;;;;;;24.87;22.83;100856.06;10092825;29;20056;-74
2023/06/03 15:57:33;;;;;;;4.60;1.30;;;;;;;25.23;23.28;100849.41;10092246;29;20048;-75
2023/06/03 16:02:36;;;;;;;1.35;0.88;;;;;;;25.56;22.41;100845.81;10092667;29;20037;-75
2023/06/03 16:07:39;;;;;;;6.15;5.38;;;;;;;24.87;22.34;100841.50;10092669;29;20132;-73
2023/06/03 16:12:44;;;;;;;1.58;0.80;;;;;;;25.24;22.61;100847.53;10092483;29;20390;-73
2023/06/03 16:17:46;;;;;;;2.13;1.08;;;;;;;26.19;21.84;100837.91;10091173;29;20056;-73
2023/06/03 16:22:50;;;;;;;0.80;0.80;;;;;;;26.46;21.98;100838.66;10091680;29;20056;-74
2023/06/03 16:27:54;;;;;;;0.70;0.60;;;;;;;26.36;21.66;100846.56;10088006;29;20049;-73
2023/06/03 16:32:57;;;;;;;3.30;1.10;;;;;;;27.14;20.84;100838.09;10091539;29;20049;-72
2023/06/03 16:38:00;;;;;;;1.55;1.05;;;;;;;30.58;18.93;100832.59;10090910;29;20052;-73
2023/06/03 16:43:04;;;;;;;0.93;0.70;;;;;;;33.63;16.29;100839.09;10090356;29;20041;-74
2023/06/03 16:48:07;;;;;;;1.20;0.90;;;;;;;34.96;15.38;100838.84;10090116;29;20053;-74
2023/06/03 16:53:10;;;;;;;5.03;1.00;;;;;;;35.04;16.03;100814.03;10089890;29;20477;-73
2023/06/03 16:58:15;;;;;;;0.80;0.68;;;;;;;34.97;15.85;100834.91;10090149;29;20057;-73
2023/06/03 17:03:18;;;;;;;1.63;0.68;;;;;;;35.95;15.16;100826.25;10089292;29;20487;-74
2023/06/03 17:08:24;;;;;;;0.88;0.60;;;;;;;36.34;15.04;100824.69;10088488;29;20218;-74
2023/06/03 17:13:28;;;;;;;1.77;1.20;;;;;;;36.09;14.73;100822.84;10088698;29;20041;-73
2023/06/03 17:18:31;;;;;;;2.58;1.00;;;;;;;36.64;14.65;100820.91;10089452;29;20509;-73
2023/06/03 17:23:34;;;;;;;1.33;1.08;;;;;;;36.99;14.66;100824.63;10091473;29;20045;-74
2023/06/03 17:28:38;;;;;;;3.42;0.90;;;;;;;37.92;14.04;100820.72;10088910;29;20056;-73
2023/06/03 17:33:41;;;;;;;6.72;3.13;;;;;;;37.76;13.88;100829.59;10091111;29;20115;-72
2023/06/03 17:38:44;;;;;;;3.25;0.73;;;;;;;37.19;14.39;100818.03;10087908;29;20135;-75
2023/06/03 17:43:48;;;;;;;2.45;1.00;;;;;;;35.51;15.87;100823.25;10088543;29;20068;-73
2023/06/03 17:48:51;;;;;;;1.20;1.05;;;;;;;32.23;16.75;100828.72;10088728;29;20044;-74
2023/06/03 17:53:54;;;;;;;2.90;1.00;;;;;;;26.48;20.63;100828.28;10087626;29;20057;-74
2023/06/03 17:58:58;;;;;;;2.53;1.05;;;;;;;23.71;22.74;100830.34;10081431;29;20432;-74
2023/06/03 18:04:01;;;;;;;0.95;0.73;;;;;;;22.38;24.62;100831.72;10096157;29;20049;-73
2023/06/03 18:09:04;;;;;;;1.55;0.93;;;;;;;21.70;24.93;100837.28;10079599;29;20052;-74
2023/06/03 18:14:08;;;;;;;2.00;0.73;;;;;;;21.12;25.64;100838.84;10095734;29;20501;-73
2023/06/03 18:19:11;;;;;;;1.95;1.00;;;;;;;20.80;26.40;100835.28;10096078;29;20049;-76
2023/06/03 18:24:15;;;;;;;2.55;0.95;;;;;;;20.55;26.60;100842.75;10086139;29;20053;-75
2023/06/03 18:29:20;;;;;;;1.50;0.70;;;;;;;20.38;27.08;100849.31;10094408;29;20420;-75
2023/06/03 18:34:23;;;;;;;0.60;0.60;;;;;;;20.13;27.52;100852.13;10094294;29;20428;-75
2023/06/03 18:39:27;;;;;;;1.08;0.88;;;;;;;19.93;27.78;100851.66;10095402;29;20052;-74
2023/06/03 18:44:32;;;;;;;2.47;0.95;;;;;;;19.78;27.80;100850.69;10094840;29;20052;-75
2023/06/03 18:49:35;;;;;;;1.10;1.00;;;;;;;19.63;28.16;100853.25;10094083;29;20041;-74
2023/06/03 18:54:37;;;;;;;3.00;0.80;;;;;;;19.42;28.16;100853.78;10094103;29;20037;-74
2023/06/03 18:59:42;;;;;;;1.40;0.90;;;;;;;19.23;28.39;100850.38;10093918;29;20053;-74
2023/06/03 19:04:45;;;;;;;1.85;1.00;;;;;;;19.03;28.95;100854.41;10092997;29;20048;-74
2023/06/03 19:09:48;;;;;;;5.63;1.20;;;;;;;18.84;29.09;100852.88;10092812;29;20520;-73
2023/06/03 19:14:52;;;;;;;1.42;0.80;;;;;;;18.71;29.62;100852.47;10092432;29;20041;-74
2023/06/03 19:19:55;;;;;;;2.42;0.90;;;;;;;18.51;29.81;100858.22;10091689;29;20048;-75
2023/06/03 19:24:58;;;;;;;1.17;1.00;;;;;;;18.42;30.70;100863.78;10081529;29;20049;-74
2023/06/03 19:30:03;;;;;;;1.42;1.00;;;;;;;18.21;30.89;100861.47;10092814;29;20592;-74
2023/06/03 19:35:07;;;;;;;1.77;0.98;;;;;;;18.00;31.34;100857.28;10091761;29;20051;-74
2023/06/03 19:40:11;;;;;;;1.50;0.85;;;;;;;17.79;31.62;100873.09;10092819;29;20041;-74
2023/06/03 19:45:15;;;;;;;2.72;1.75;;;;;;;17.64;31.97;100870.13;10080499;29;20052;-74
2023/06/03 19:50:18;;;;;;;2.42;1.40;;;;;;;17.50;32.10;100876.97;10092697;29;20068;-73
2023/06/03 19:55:21;;;;;;;2.22;1.45;;;;;;;17.37;32.71;100884.66;10081147;29;20063;-74
2023/06/03 20:00:25;;;;;;;1.95;1.63;;;;;;;17.17;32.95;100890.28;10082551;29;20602;-74
2023/06/03 20:05:28;;;;;;;3.45;1.67;;;;;;;17.09;33.43;100897.44;10093480;29;20053;-76
2023/06/03 20:10:31;;;;;;;3.92;1.95;;;;;;;16.98;33.45;100898.53;10093115;29;20520;-74
2023/06/03 20:15:35;;;;;;;2.40;1.80;;;;;;;16.78;34.11;100895.06;10089728;29;20053;-76
2023/06/03 20:20:38;;;;;;;3.42;1.80;;;;;;;16.75;34.31;100900.81;10092219;29;20049;-73
2023/06/03 20:25:42;;;;;;;1.67;1.30;;;;;;;16.62;34.29;100903.00;10089796;29;20097;-75
2023/06/03 20:30:46;;;;;;;3.22;1.55;;;;;;;16.51;35.27;100896.81;10092479;29;20045;-76
2023/06/03 20:35:49;;;;;;;3.38;1.30;;;;;;;16.28;35.07;100906.31;10074882;29;20167;-77
2023/06/03 20:40:52;;;;;;;2.15;1.17;;;;;;;16.18;35.64;100906.34;10071579;29;20622;-75
2023/06/03 20:45:58;;;;;;;3.08;1.45;;;;;;;16.06;35.53;100902.94;10091069;29;20049;-75
2023/06/03 20:51:02;;;;;;;2.22;1.70;;;;;;;15.61;35.50;100914.47;10091580;29;20056;-75
2023/06/03 20:56:05;;;;;;;1.65;1.52;;;;;;;15.53;35.93;100913.47;10074698;29;20118;-75
2023/06/03 21:01:10;;;;;;;2.25;1.70;;;;;;;15.47;35.79;100914.91;10093461;29;20073;-75
2023/06/03 21:06:13;;;;;;;1.90;1.60;;;;;;;15.45;36.19;100919.59;10091343;29;20048;-75
2023/06/03 21:11:16;;;;;;;2.63;1.50;;;;;;;15.33;36.54;100923.41;10088615;29;20048;-76
2023/06/03 21:16:20;;;;;;;2.08;1.40;;;;;;;15.31;36.85;100914.59;10090365;29;20037;-75
2023/06/03 21:21:24;;;;;;;3.05;1.50;;;;;;;15.12;36.65;100910.03;10090528;29;20041;-74
2023/06/03 21:26:26;;;;;;;4.10;1.50;;;;;;;15.03;36.29;100911.72;10089569;29;20053;-76
2023/06/03 21:31:31;;;;;;;1.63;1.30;;;;;;;15.01;37.08;100919.97;10089510;29;20131;-74
2023/06/03 21:36:34;;;;;;;2.25;1.48;;;;;;;14.89;37.40;100918.41;10089356;29;20112;-75
2023/06/03 21:41:37;;;;;;;4.20;1.30;;;;;;;14.86;36.81;100912.41;10088830;29;20082;-75
2023/06/03 21:46:41;;;;;;;2.63;1.52;;;;;;;14.81;37.07;100918.25;10089459;29;20029;-74
2023/06/03 21:51:44;;;;;;;2.35;1.33;;;;;;;14.77;37.04;100917.66;10089766;29;20044;-75
2023/06/03 21:56:47;;;;;;;3.22;1.42;;;;;;;14.69;36.62;100920.19;10095336;29;20394;-75
2023/06/03 22:01:51;;;;;;;3.33;1.63;;;;;;;14.59;37.18;100919.34;10090280;29;20053;-75
2023/06/03 22:06:54;;;;;;;2.67;1.90;;;;;;;14.45;37.31;100925.94;10089402;29;20049;-76
2023/06/03 22:11:57;;;;;;;1.77;1.67;;;;;;;14.26;37.81;100921.31;10086860;29;20056;-76
2023/06/03 22:17:01;;;;;;;2.38;1.52;;;;;;;14.22;39.09;100927.09;10088045;29;20045;-76
2023/06/03 22:22:05;;;;;;;3.05;1.75;;;;;;;14.02;39.37;100924.31;10086162;29;20642;-76
2023/06/03 22:27:08;;;;;;;5.35;2.20;;;;;;;13.96;39.93;100913.16;10087688;29;20144;-76
2023/06/03 22:32:14;;;;;;;2.53;2.28;;;;;;;13.94;39.35;100916.88;10088463;29;20513;-75
2023/06/03 22:37:16;;;;;;;4.43;3.03;;;;;;;13.91;39.76;100916.28;10087381;29;20196;-76
2023/06/03 22:42:19;;;;;;;3.97;2.47;;;;;;;14.08;40.14;100920.22;10088895;29;20040;-76
2023/06/03 22:47:23;;;;;;;7.45;2.92;;;;;;;13.96;40.15;100923.97;10094482;29;20049;-75
2023/06/03 22:52:26;;;;;;;3.85;2.42;;;;;;;13.70;41.07;100911.72;10095132;29;20053;-76
2023/06/03 22:57:29;;;;;;;6.28;2.53;;;;;;;13.61;41.70;100927.88;10076974;29;20053;-77
2023/06/03 23:02:33;;;;;;;5.43;2.20;;;;;;;13.30;41.86;100932.25;10094397;29;20068;-76
2023/06/03 23:07:36;;;;;;;4.95;2.20;;;;;;;13.15;41.84;100937.97;10093101;29;20049;-75
2023/06/03 23:12:39;;;;;;;6.38;2.20;;;;;;;13.09;42.72;100926.84;10094181;29;20124;-77
2023/06/03 23:17:43;;;;;;;4.28;2.40;;;;;;;13.07;42.82;100934.19;10093052;29;20076;-76
2023/06/03 23:22:46;;;;;;;7.93;2.55;;;;;;;13.14;43.05;100920.06;10091928;29;20132;-75